Porirua, New Zealand
Current Conditions -  °F | °C
As of 7:30 PM on Sunday 23 Nov 2014 (Local Time) from NZWN Reporting Station
Broken Clouds Broken Clouds  
Wind Chill: 57°   Ceiling: 2100
Heat Index: 57°   Visibility: 6mi
Dew Point: 48°   Wind: 22mph
Humidity: 72%   Direction: 360°N
Pressure: 30"   Gusts: NA
Location:  41.14°S, 174.84°E
Report Text: NZWN 230730Z AUTO 36019KT 9999 BKN021/// 14/09 Q1016 NOSIG
Loading
Personal Weather Stations






























Interactive Weather Map New forecast layout! Learn more

10-Day Weather Forecast

Advertisements
Track Severe Weather on mobile